CST,Max TemperatureF,Mean TemperatureF,Min TemperatureF,Max Dew PointF,MeanDew PointF,Min DewpointF,Max Humidity, Mean Humidity, Min Humidity, Max Sea Level PressureIn, Mean Sea Level PressureIn, Min Sea Level PressureIn, Max VisibilityMiles, Mean VisibilityMiles, Min VisibilityMiles, Max Wind SpeedMPH, Mean Wind SpeedMPH, Max Gust SpeedMPH,PrecipitationIn, CloudCover, Events, WindDirDegrees
2013-11-1,77,64,51,68,59,50,96,68,40,29.95,29.87,29.81,10,9,2,14,4,20,0.12,5,Rain,309
2013-11-2,73,61,48,51,45,38,93,61,29,30.19,30.04,29.94,10,10,10,17,5,22,0.00,0,,341
2013-11-3,68,55,41,46,42,40,96,67,37,30.27,30.21,30.16,10,10,9,8,3,,0.00,0,,36
2013-11-4,71,55,39,54,47,38,93,72,51,30.30,30.24,30.20,10,10,8,14,3,16,0.00,4,,94
2013-11-5,76,64,52,57,54,49,93,72,50,30.29,30.21,30.16,10,10,10,16,7,31,0.00,3,,105
2013-11-6,82,67,51,68,62,50,96,77,58,30.16,30.11,30.06,10,9,2,17,4,22,0.41,5,Rain,153
2013-11-7,66,56,45,63,50,39,93,68,43,30.34,30.22,30.09,10,9,2,18,9,28,0.11,5,Rain,343
2013-11-8,66,54,41,43,37,32,92,61,30,30.37,30.29,30.23,10,10,10,17,5,26,0.00,0,,17
2013-11-9,72,57,41,53,47,39,96,72,47,30.29,30.23,30.19,10,10,10,7,1,40,0.00,0,,87
2013-11-10,75,62,48,52,50,46,93,66,38,30.30,30.25,30.21,10,10,10,9,3,,T,1,Rain,13
2013-11-11,76,59,42,53,47,41,100,68,36,30.27,30.22,30.16,10,10,6,6,0,,0.00,0,,180
2013-11-12,70,54,38,51,42,27,93,72,51,30.52,30.34,30.21,10,10,8,24,7,32,0.00,2,,356
2013-11-13,56,43,30,31,24,20,85,55,24,30.59,30.51,30.44,10,10,10,16,6,22,0.00,0,,18
2013-11-14,65,46,26,44,34,24,92,65,37,30.44,30.32,30.17,10,10,10,9,2,17,0.00,2,,88
2013-11-15,63,57,51,59,54,43,97,84,71,30.16,30.09,30.02,10,7,1,12,3,,0.96,7,Rain,60
2013-11-16,73,67,60,67,63,57,100,90,79,30.10,30.05,29.99,10,6,0,12,5,15,0.05,8,Fog-Rain,124
2013-11-17,82,75,67,72,69,65,100,85,69,29.99,29.95,29.88,10,7,1,15,6,22,0.04,7,Rain,172
2013-11-18,80,68,55,72,56,36,93,57,21,30.14,30.02,29.96,10,8,0,20,7,31,T,4,Fog-Rain,5
2013-11-19,66,52,37,39,32,23,85,53,20,30.20,30.14,30.08,10,10,10,18,6,25,0.00,0,,4
2013-11-20,71,53,35,52,43,33,93,70,47,30.17,30.12,30.07,10,10,10,9,2,17,0.00,0,,125
2013-11-21,68,57,46,62,54,43,93,86,78,30.27,30.21,30.16,10,8,2,10,5,14,0.00,7,,109
2013-11-22,72,66,60,65,62,58,97,89,81,30.28,30.22,30.16,10,7,1,14,4,24,0.15,7,Rain,11
2013-11-23,64,55,45,61,52,37,93,85,76,30.38,30.27,30.19,10,8,1,16,8,22,0.02,7,Rain,10
2013-11-24,52,44,36,34,24,19,76,52,28,30.46,30.40,30.34,10,10,10,20,9,26,0.00,0,,20
2013-11-25,50,43,35,46,36,23,93,74,54,30.33,30.16,29.93,10,9,5,12,7,16,0.30,7,Rain,53
2013-11-26,50,46,41,47,43,38,93,91,89,30.01,29.89,29.80,10,6,2,21,11,29,1.42,8,Rain,348
2013-11-27,47,38,29,36,26,21,85,61,37,30.43,30.25,30.04,10,10,10,20,11,29,T,1,,334
2013-11-28,51,38,25,31,24,19,92,61,29,30.52,30.47,30.42,10,10,10,8,2,12,0.00,0,,332
2013-11-29,61,43,24,34,26,21,92,57,22,30.57,30.49,30.45,10,10,10,12,2,16,0.00,0,,28
2013-11-30,67,47,27,36,29,19,92,55,18,30.48,30.38,30.28,10,10,10,7,0,,0.00,0,,150